Time;durP1;ratioP1;P1;durP2;ratioP2;P2;SDS_P1;SDS_P2;PMS_P1;PMS_P2;Temp;Humidity;BMP_temperature;BMP_pressure;BME280_temperature;BME280_humidity;BME280_pressure;Samples;Min_cycle;Max_cycle;Signal;HPM_P1;HPM_P2
2022/10/08 00:01:29;;;;;;;0.60;0.10;;;14.40;1.00;;;;;;5086346;28;20472;-73
2022/10/08 00:03:59;;;;;;;0.60;0.10;;;14.50;1.00;;;;;;5072553;28;20446;-73
2022/10/08 00:06:29;;;;;;;0.60;0.10;;;14.50;1.00;;;;;;5072642;28;20452;-74
2022/10/08 00:09:01;;;;;;;0.60;0.10;;;14.50;1.00;;;;;;5073048;28;20534;-73
2022/10/08 00:11:32;;;;;;;0.60;0.10;;;14.50;1.00;;;;;;5078536;28;20492;-73
2022/10/08 00:14:02;;;;;;;0.60;0.10;;;14.60;1.00;;;;;;5072525;28;20798;-72
2022/10/08 00:16:31;;;;;;;0.60;0.20;;;14.50;1.00;;;;;;5077419;28;20445;-74
2022/10/08 00:19:03;;;;;;;0.60;0.10;;;14.50;1.00;;;;;;5057346;28;20467;-74
2022/10/08 00:21:34;;;;;;;0.60;0.10;;;14.60;1.00;;;;;;5060335;28;20494;-72
2022/10/08 00:24:03;;;;;;;0.60;0.10;;;15.30;1.00;;;;;;5074194;28;20449;-73
2022/10/08 00:26:35;;;;;;;0.60;0.10;;;14.60;1.00;;;;;;5072097;28;20441;-73
2022/10/08 00:29:12;;;;;;;0.60;0.10;;;14.50;1.00;;;;;;5071044;28;20475;-73
2022/10/08 00:31:43;;;;;;;0.60;0.10;;;14.60;1.00;;;;;;5069410;28;21047;-73
2022/10/08 00:34:14;;;;;;;0.60;0.10;;;14.60;1.00;;;;;;5070878;28;20497;-71
2022/10/08 00:36:43;;;;;;;0.60;0.10;;;14.50;1.00;;;;;;5071339;28;20481;-73
2022/10/08 00:39:13;;;;;;;0.60;0.10;;;14.60;1.00;;;;;;5071128;28;20473;-73
2022/10/08 00:41:45;;;;;;;0.60;0.10;;;14.60;1.00;;;;;;5071652;28;20535;-72
2022/10/08 00:44:50;;;;;;;0.60;0.10;;;14.60;1.00;;;;;;5072312;28;20971;-74
2022/10/08 00:47:21;;;;;;;0.60;0.10;;;14.60;1.00;;;;;;5073100;28;20547;-74
2022/10/08 00:49:53;;;;;;;0.60;0.13;;;14.50;1.00;;;;;;5081059;28;20448;-73
2022/10/08 00:52:22;;;;;;;0.60;0.10;;;14.60;1.00;;;;;;5078162;28;20484;-74
2022/10/08 00:54:51;;;;;;;0.60;0.10;;;14.50;1.00;;;;;;5071658;28;20487;-74
2022/10/08 00:57:21;;;;;;;0.60;0.10;;;14.50;1.00;;;;;;5071754;28;20518;-74
2022/10/08 00:59:49;;;;;;;0.60;0.10;;;14.60;1.00;;;;;;5071688;28;20495;-75
2022/10/08 01:02:18;;;;;;;0.60;0.13;;;14.50;1.00;;;;;;5071411;28;20438;-74
2022/10/08 01:04:47;;;;;;;0.60;0.10;;;14.50;1.00;;;;;;5071355;28;20473;-72
2022/10/08 01:07:20;;;;;;;0.60;0.10;;;14.50;1.00;;;;;;5071894;28;20449;-72
2022/10/08 01:09:55;;;;;;;0.60;0.10;;;14.50;1.00;;;;;;5072576;28;20445;-74
2022/10/08 01:12:35;;;;;;;0.60;0.10;;;14.50;1.00;;;;;;5091767;28;20447;-73
2022/10/08 01:15:11;;;;;;;0.60;0.10;;;14.50;1.00;;;;;;5094322;28;20977;-74
2022/10/08 01:17:48;;;;;;;0.60;0.10;;;14.50;1.00;;;;;;5103650;28;20440;-74
2022/10/08 01:20:34;;;;;;;0.60;0.10;;;14.60;1.00;;;;;;5088308;28;20538;-74
2022/10/08 01:23:32;;;;;;;0.60;0.10;;;14.60;1.00;;;;;;5072383;28;20445;-74
2022/10/08 01:26:13;;;;;;;1.43;1.33;;;14.50;1.00;;;;;;5071339;28;20450;-74
2022/10/08 01:28:49;;;;;;;0.60;0.10;;;14.60;1.00;;;;;;5071825;28;20438;-73
2022/10/08 01:31:22;;;;;;;0.60;0.10;;;14.60;1.00;;;;;;5071793;28;21060;-73
2022/10/08 01:33:57;;;;;;;0.60;0.10;;;14.60;1.00;;;;;;5071982;28;20446;-73
2022/10/08 01:36:28;;;;;;;0.60;0.10;;;14.60;1.00;;;;;;5072115;28;20444;-73
2022/10/08 01:39:00;;;;;;;0.60;0.20;;;14.60;1.00;;;;;;5071770;28;20460;-73
2022/10/08 01:41:30;;;;;;;0.60;0.10;;;14.60;1.00;;;;;;5073019;28;20457;-74
2022/10/08 01:44:05;;;;;;;0.60;0.10;;;14.60;1.00;;;;;;5069855;28;20524;-73
2022/10/08 01:46:36;;;;;;;0.60;0.30;;;14.60;1.00;;;;;;5082298;28;20447;-73
2022/10/08 01:49:09;;;;;;;0.60;0.10;;;14.60;1.00;;;;;;5074165;28;20484;-73
2022/10/08 01:51:42;;;;;;;0.60;0.10;;;14.50;1.00;;;;;;5074975;28;20517;-74
2022/10/08 01:54:15;;;;;;;0.60;0.20;;;14.50;1.00;;;;;;5075337;28;20425;-74
2022/10/08 01:56:45;;;;;;;0.60;0.10;;;14.50;1.00;;;;;;5075429;28;20577;-74
2022/10/08 01:59:19;;;;;;;0.60;0.10;;;14.50;1.00;;;;;;5075126;28;20479;-74
2022/10/08 02:01:56;;;;;;;0.60;0.17;;;14.50;1.00;;;;;;5075296;28;20519;-74
2022/10/08 02:04:36;;;;;;;0.60;0.10;;;14.50;1.00;;;;;;5074894;28;20931;-74
2022/10/08 02:07:07;;;;;;;0.60;0.10;;;14.50;1.00;;;;;;5074203;28;20479;-74
2022/10/08 02:09:38;;;;;;;0.60;0.10;;;14.50;1.00;;;;;;5074415;28;20442;-73
2022/10/08 02:12:07;;;;;;;0.60;0.10;;;14.50;1.00;;;;;;5091944;28;20585;-74
2022/10/08 02:14:39;;;;;;;0.60;0.20;;;14.40;1.00;;;;;;5082289;28;20493;-73
2022/10/08 02:17:23;;;;;;;0.60;0.10;;;14.40;1.00;;;;;;5074523;28;20438;-73
2022/10/08 02:19:56;;;;;;;3.57;1.80;;;14.40;1.00;;;;;;5074417;28;20445;-73
2022/10/08 02:22:30;;;;;;;0.60;0.10;;;15.20;1.00;;;;;;5074167;28;20449;-74
2022/10/08 02:25:04;;;;;;;0.60;0.10;;;14.40;1.00;;;;;;5074238;28;20518;-73
2022/10/08 02:27:48;;;;;;;0.60;0.20;;;14.30;1.00;;;;;;5074409;28;20979;-74
2022/10/08 02:30:17;;;;;;;0.60;0.10;;;14.30;1.00;;;;;;5074103;28;20477;-74
2022/10/08 02:32:54;;;;;;;0.60;0.20;;;14.30;1.00;;;;;;5074168;28;20481;-74
2022/10/08 02:35:27;;;;;;;0.60;0.10;;;14.30;1.00;;;;;;5074443;28;20530;-74
2022/10/08 02:38:01;;;;;;;0.60;0.10;;;14.30;1.00;;;;;;5074369;28;20450;-74
2022/10/08 02:40:32;;;;;;;0.60;0.10;;;14.30;1.00;;;;;;5074187;28;20465;-74
2022/10/08 02:43:06;;;;;;;0.60;0.10;;;14.20;1.00;;;;;;5073983;28;20910;-73
2022/10/08 02:45:42;;;;;;;0.60;0.10;;;14.20;1.00;;;;;;5073800;28;20445;-74
2022/10/08 02:48:16;;;;;;;0.60;0.10;;;14.20;1.00;;;;;;5074189;28;20441;-73
2022/10/08 02:50:47;;;;;;;0.60;0.13;;;14.20;1.00;;;;;;5073559;28;20841;-74
2022/10/08 02:53:17;;;;;;;0.70;0.30;;;14.10;1.00;;;;;;5072993;28;20481;-73
2022/10/08 02:55:54;;;;;;;0.60;0.10;;;14.10;1.00;;;;;;5073933;28;20453;-74
2022/10/08 02:58:22;;;;;;;0.60;0.20;;;14.00;1.00;;;;;;5073788;28;20434;-74
2022/10/08 03:00:59;;;;;;;0.60;0.10;;;14.00;1.00;;;;;;5073635;28;20484;-74
2022/10/08 03:03:32;;;;;;;0.60;0.10;;;14.00;1.00;;;;;;5073341;28;20870;-74
2022/10/08 03:06:03;;;;;;;0.60;0.20;;;14.00;1.00;;;;;;5073566;28;20481;-74
2022/10/08 03:08:33;;;;;;;0.60;0.10;;;13.90;1.00;;;;;;5073562;28;20446;-74
2022/10/08 03:11:01;;;;;;;4.80;4.53;;;13.80;1.00;;;;;;5082047;28;20464;-74
2022/10/08 03:13:33;;;;;;;0.60;0.10;;;13.70;1.00;;;;;;5093848;28;20829;-74
2022/10/08 03:16:07;;;;;;;0.90;0.40;;;13.70;1.00;;;;;;5094151;28;20476;-74
2022/10/08 03:18:36;;;;;;;0.60;0.10;;;13.80;1.00;;;;;;5092885;28;20478;-74
2022/10/08 03:21:08;;;;;;;0.60;0.10;;;13.70;1.00;;;;;;5073298;28;20557;-74
2022/10/08 03:23:36;;;;;;;0.60;0.10;;;13.70;1.00;;;;;;5073250;28;20797;-72
2022/10/08 03:26:04;;;;;;;0.60;0.10;;;13.70;1.00;;;;;;5073093;28;20472;-74
2022/10/08 03:28:33;;;;;;;0.60;0.10;;;13.60;1.00;;;;;;5073791;28;20441;-74
2022/10/08 03:31:05;;;;;;;0.60;0.10;;;13.60;1.00;;;;;;5095551;22;20485;-72
2022/10/08 03:33:33;;;;;;;0.60;0.10;;;13.70;1.00;;;;;;5072855;28;20939;-72
2022/10/08 03:36:01;;;;;;;0.60;0.10;;;13.60;1.00;;;;;;5072670;28;20866;-72
2022/10/08 03:38:29;;;;;;;0.60;0.10;;;13.60;1.00;;;;;;5072865;28;20872;-72
2022/10/08 03:40:58;;;;;;;0.60;0.10;;;13.70;1.00;;;;;;5072829;28;20553;-73
2022/10/08 03:43:31;;;;;;;0.60;0.10;;;13.60;1.00;;;;;;5072292;28;20997;-73
2022/10/08 03:45:59;;;;;;;0.60;0.10;;;13.70;1.00;;;;;;5072672;28;20453;-73
2022/10/08 03:48:29;;;;;;;0.60;0.10;;;13.70;1.00;;;;;;5072662;28;20499;-73
2022/10/08 03:50:59;;;;;;;0.60;0.10;;;13.70;1.00;;;;;;5072586;28;21048;-73
2022/10/08 03:53:28;;;;;;;0.60;0.10;;;13.70;1.00;;;;;;5071909;28;20476;-72
2022/10/08 03:55:56;;;;;;;0.60;0.10;;;13.70;1.00;;;;;;5072725;28;20445;-72
2022/10/08 03:58:24;;;;;;;0.60;0.10;;;13.70;1.00;;;;;;5072526;28;20993;-72
2022/10/08 04:00:58;;;;;;;0.60;0.10;;;13.70;1.00;;;;;;5072456;28;20469;-72
2022/10/08 04:03:27;;;;;;;0.60;0.10;;;13.70;1.00;;;;;;5072107;28;20441;-71
2022/10/08 04:05:57;;;;;;;0.60;0.10;;;13.70;1.00;;;;;;5072540;28;20468;-72
2022/10/08 04:08:25;;;;;;;0.60;0.10;;;13.70;1.00;;;;;;5072613;28;20442;-71
2022/10/08 04:10:53;;;;;;;0.60;0.10;;;13.70;1.00;;;;;;5072186;28;20473;-73
2022/10/08 04:13:22;;;;;;;0.60;0.10;;;13.70;1.00;;;;;;5072107;28;20488;-72
2022/10/08 04:15:50;;;;;;;0.60;0.10;;;13.60;1.00;;;;;;5072450;28;20442;-72
2022/10/08 04:18:18;;;;;;;0.60;0.10;;;13.60;1.00;;;;;;5072952;28;20475;-72
2022/10/08 04:20:46;;;;;;;0.60;0.10;;;13.60;1.00;;;;;;5073861;28;20470;-72
2022/10/08 04:23:15;;;;;;;0.60;0.10;;;13.60;1.00;;;;;;5074439;28;20441;-72
2022/10/08 04:25:49;;;;;;;0.60;0.10;;;13.60;1.00;;;;;;5075970;28;20451;-73
2022/10/08 04:28:17;;;;;;;0.60;0.10;;;13.50;1.00;;;;;;5075224;28;20495;-72
2022/10/08 04:30:55;;;;;;;0.60;0.10;;;13.50;1.00;;;;;;5072630;28;20470;-73
2022/10/08 04:33:23;;;;;;;0.60;0.10;;;13.50;1.00;;;;;;5072331;28;20499;-74
2022/10/08 04:35:52;;;;;;;0.60;0.10;;;13.50;1.00;;;;;;5072338;28;20533;-72
2022/10/08 04:38:28;;;;;;;0.60;0.10;;;13.40;1.00;;;;;;5072302;28;20441;-72
2022/10/08 04:41:04;;;;;;;0.60;0.10;;;13.40;1.00;;;;;;5072181;28;21037;-71
2022/10/08 04:43:32;;;;;;;0.60;0.10;;;13.40;1.00;;;;;;5072653;28;20445;-71
2022/10/08 04:46:00;;;;;;;0.60;0.10;;;13.30;1.00;;;;;;5072568;28;20488;-72
2022/10/08 04:48:28;;;;;;;0.60;0.10;;;13.30;1.00;;;;;;5072331;28;20533;-72
2022/10/08 04:50:57;;;;;;;0.60;0.10;;;13.20;1.00;;;;;;5072021;28;20803;-73
2022/10/08 04:53:27;;;;;;;0.60;0.10;;;13.30;1.00;;;;;;5071953;28;20477;-72
2022/10/08 04:55:56;;;;;;;0.60;0.10;;;13.30;1.00;;;;;;5072459;28;20465;-72
2022/10/08 04:58:25;;;;;;;0.60;0.10;;;13.30;1.00;;;;;;5072794;28;20442;-72
2022/10/08 05:00:53;;;;;;;0.60;0.10;;;13.30;1.00;;;;;;5072062;28;20465;-72
2022/10/08 05:03:20;;;;;;;0.60;0.10;;;13.20;1.00;;;;;;5071675;28;20486;-72
2022/10/08 05:05:48;;;;;;;0.60;0.10;;;13.30;1.00;;;;;;5071980;28;20813;-71
2022/10/08 05:08:16;;;;;;;0.60;0.10;;;13.30;1.00;;;;;;5071083;28;20846;-71
2022/10/08 05:10:49;;;;;;;0.60;0.10;;;13.20;1.00;;;;;;5074953;28;20457;-72
2022/10/08 05:13:17;;;;;;;0.60;0.10;;;13.20;1.00;;;;;;5071407;28;20554;-71
2022/10/08 05:15:44;;;;;;;0.60;0.10;;;13.30;1.00;;;;;;5072144;28;20491;-71
2022/10/08 05:18:12;;;;;;;0.60;0.30;;;13.20;1.00;;;;;;5077449;28;20449;-71
2022/10/08 05:20:40;;;;;;;0.60;0.10;;;13.00;1.00;;;;;;5076096;28;20511;-71
2022/10/08 05:23:08;;;;;;;0.60;0.10;;;13.00;1.00;;;;;;5075921;28;20567;-71
2022/10/08 05:25:36;;;;;;;0.60;0.10;;;13.00;1.00;;;;;;5076547;28;20447;-73
2022/10/08 05:28:05;;;;;;;0.60;0.10;;;12.90;1.00;;;;;;5076293;28;20552;-72
2022/10/08 05:30:33;;;;;;;0.60;0.10;;;12.90;1.00;;;;;;5076248;28;20991;-71
2022/10/08 05:33:01;;;;;;;0.60;0.10;;;12.90;1.00;;;;;;5084700;28;20477;-71
2022/10/08 05:35:29;;;;;;;0.60;0.10;;;12.90;1.00;;;;;;5084280;28;20445;-72
2022/10/08 05:37:57;;;;;;;0.60;0.10;;;12.80;1.00;;;;;;5080175;28;20532;-71
2022/10/08 05:40:25;;;;;;;0.60;0.13;;;12.90;1.00;;;;;;5080375;28;20519;-72
2022/10/08 05:42:53;;;;;;;0.90;0.57;;;12.90;1.00;;;;;;5082615;28;20442;-72
2022/10/08 05:45:22;;;;;;;0.60;0.10;;;12.90;1.00;;;;;;5081793;28;20575;-71
2022/10/08 05:47:50;;;;;;;0.60;0.10;;;12.90;1.00;;;;;;5081082;28;20467;-72
2022/10/08 05:50:17;;;;;;;0.60;0.10;;;12.90;1.00;;;;;;5081054;28;21822;-72
2022/10/08 05:52:45;;;;;;;0.60;0.10;;;12.90;1.00;;;;;;5081416;28;20481;-73
2022/10/08 05:55:13;;;;;;;0.60;0.10;;;12.90;1.00;;;;;;5081318;28;20481;-72
2022/10/08 05:57:41;;;;;;;0.97;0.53;;;12.90;1.00;;;;;;5083797;28;20495;-71
2022/10/08 06:00:11;;;;;;;0.60;0.20;;;12.80;1.00;;;;;;5090310;28;20493;-71
2022/10/08 06:02:40;;;;;;;0.60;0.10;;;12.80;1.00;;;;;;5095151;28;20437;-73
2022/10/08 06:05:08;;;;;;;0.60;0.40;;;12.80;1.00;;;;;;5095102;28;20444;-71
2022/10/08 06:07:36;;;;;;;0.60;0.30;;;12.80;1.00;;;;;;5087820;28;20464;-72
2022/10/08 06:10:05;;;;;;;0.60;0.20;;;12.70;1.00;;;;;;5089289;28;20444;-71
2022/10/08 06:12:33;;;;;;;0.60;0.10;;;12.70;1.00;;;;;;5083901;28;20481;-72
2022/10/08 06:15:01;;;;;;;0.60;0.20;;;12.60;1.00;;;;;;5089722;28;20453;-72
2022/10/08 06:17:28;;;;;;;1.63;0.80;;;12.70;1.00;;;;;;5083109;28;20449;-72
2022/10/08 06:19:58;;;;;;;0.93;0.50;;;;;;;;;;5082704;28;20848;-72
2022/10/08 06:22:26;;;;;;;0.60;0.10;;;12.50;1.00;;;;;;5083090;28;20445;-72
2022/10/08 06:24:53;;;;;;;0.60;0.10;;;12.50;1.00;;;;;;5082519;28;20939;-71
2022/10/08 06:27:21;;;;;;;0.80;0.40;;;12.50;1.00;;;;;;5081979;28;20968;-71
2022/10/08 06:29:49;;;;;;;0.60;0.10;;;12.50;1.00;;;;;;5085026;28;20454;-72
2022/10/08 06:32:17;;;;;;;0.70;0.43;;;12.50;1.00;;;;;;5085451;28;20498;-72
2022/10/08 06:34:45;;;;;;;2.10;1.90;;;12.50;1.00;;;;;;5087403;28;20530;-72
2022/10/08 06:37:14;;;;;;;1.70;0.23;;;12.50;1.00;;;;;;5086356;28;20620;-72
2022/10/08 06:39:41;;;;;;;0.70;0.40;;;12.50;1.00;;;;;;5087029;28;20445;-72
2022/10/08 06:42:14;;;;;;;0.60;0.20;;;12.60;1.00;;;;;;5085719;28;20521;-72
2022/10/08 06:44:42;;;;;;;0.60;0.10;;;12.60;1.00;;;;;;5079479;28;20449;-73
2022/10/08 06:47:10;;;;;;;0.60;0.10;;;12.60;1.00;;;;;;5074651;28;20457;-73
2022/10/08 06:49:39;;;;;;;0.70;0.40;;;12.70;1.00;;;;;;5077597;28;20450;-73
2022/10/08 06:52:07;;;;;;;0.60;0.10;;;12.70;1.00;;;;;;5078614;28;20481;-72
2022/10/08 06:54:36;;;;;;;0.60;0.10;;;12.70;1.00;;;;;;5078813;28;20484;-72
2022/10/08 06:57:04;;;;;;;0.60;0.20;;;12.60;1.00;;;;;;5084283;28;20916;-72
2022/10/08 06:59:35;;;;;;;0.70;0.30;;;12.70;1.00;;;;;;5083779;28;20446;-73
2022/10/08 07:02:03;;;;;;;0.60;0.10;;;12.70;1.00;;;;;;5083800;28;20474;-71
2022/10/08 07:04:32;;;;;;;1.30;0.30;;;12.70;1.00;;;;;;5083565;28;20460;-72
2022/10/08 07:07:00;;;;;;;0.60;0.10;;;12.70;1.00;;;;;;5084053;28;20507;-73
2022/10/08 07:09:28;;;;;;;1.53;1.43;;;12.70;1.00;;;;;;5077983;28;20679;-72
2022/10/08 07:11:57;;;;;;;2.50;1.23;;;12.70;1.00;;;;;;5088938;28;20457;-73
2022/10/08 07:14:25;;;;;;;0.60;0.30;;;12.70;1.00;;;;;;5084940;28;20880;-73
2022/10/08 07:16:53;;;;;;;0.60;0.10;;;12.80;1.00;;;;;;5082336;28;20447;-73
2022/10/08 07:19:21;;;;;;;0.60;0.10;;;12.70;1.00;;;;;;5081270;28;20445;-75
2022/10/08 07:21:49;;;;;;;0.60;0.10;;;12.70;1.00;;;;;;5082472;28;20484;-73
2022/10/08 07:24:16;;;;;;;0.60;0.10;;;12.70;1.00;;;;;;5083020;28;20430;-71
2022/10/08 07:26:44;;;;;;;11.50;2.03;;;12.70;1.00;;;;;;5082469;28;20475;-72
2022/10/08 07:29:15;;;;;;;0.60;0.10;;;12.70;1.00;;;;;;5085531;28;20947;-72
2022/10/08 07:31:44;;;;;;;0.60;0.10;;;;;;;;;;5071719;28;20488;-72
2022/10/08 07:34:13;;;;;;;1.53;0.80;;;12.60;1.00;;;;;;5084295;28;20484;-73
2022/10/08 07:36:41;;;;;;;0.60;0.17;;;12.60;1.00;;;;;;5083916;28;20853;-73
2022/10/08 07:39:13;;;;;;;0.90;0.73;;;12.70;1.00;;;;;;5080222;28;20450;-73
2022/10/08 07:41:41;;;;;;;0.60;0.10;;;12.70;1.00;;;;;;5075943;28;20552;-73
2022/10/08 07:44:11;;;;;;;0.60;0.10;;;12.70;1.00;;;;;;5074876;28;20465;-72
2022/10/08 07:46:44;;;;;;;0.60;0.10;;;12.70;1.00;;;;;;5074435;28;20498;-73
2022/10/08 07:49:13;;;;;;;0.60;0.10;;;12.80;1.00;;;;;;5074397;28;20499;-73
2022/10/08 07:51:41;;;;;;;1.00;0.63;;;12.80;1.00;;;;;;5073456;28;20610;-74
2022/10/08 07:54:11;;;;;;;1.53;1.43;;;12.90;1.00;;;;;;5073345;28;20546;-73
2022/10/08 07:56:39;;;;;;;0.60;0.10;;;12.80;1.00;;;;;;5073326;28;20441;-73
2022/10/08 07:59:08;;;;;;;0.70;0.53;;;;;;;;;;5072953;28;20453;-72
2022/10/08 08:01:36;;;;;;;0.60;0.20;;;12.90;1.00;;;;;;5073234;28;20466;-72
2022/10/08 08:04:07;;;;;;;0.60;0.20;;;13.00;1.00;;;;;;5073387;28;20507;-72
2022/10/08 08:06:39;;;;;;;0.60;0.10;;;13.00;1.00;;;;;;5073178;28;20467;-73
2022/10/08 08:09:07;;;;;;;4.53;1.23;;;13.10;1.00;;;;;;5080768;28;20995;-74
2022/10/08 08:11:35;;;;;;;1.03;0.80;;;13.10;1.00;;;;;;5085606;28;20469;-74
2022/10/08 08:14:03;;;;;;;2.40;0.93;;;13.10;1.00;;;;;;5078395;28;20546;-74
2022/10/08 08:16:31;;;;;;;0.70;0.30;;;13.10;1.00;;;;;;5082313;28;20452;-75
2022/10/08 08:19:01;;;;;;;1.27;0.33;;;13.20;1.00;;;;;;5077522;28;20502;-74
2022/10/08 08:21:32;;;;;;;1.53;0.50;;;13.30;1.00;;;;;;5081694;28;20523;-73
2022/10/08 08:24:05;;;;;;;0.90;0.40;;;13.30;1.00;;;;;;5082319;28;20456;-74
2022/10/08 08:26:35;;;;;;;6.23;3.93;;;13.30;1.00;;;;;;5083739;28;20955;-75
2022/10/08 08:29:06;;;;;;;3.23;1.47;;;13.30;1.00;;;;;;5083368;28;20485;-75
2022/10/08 08:31:35;;;;;;;16.53;0.97;;;13.40;1.00;;;;;;5092656;28;20491;-76
2022/10/08 08:34:07;;;;;;;0.60;0.20;;;13.40;1.00;;;;;;5088047;28;20502;-75
2022/10/08 08:36:38;;;;;;;0.60;0.20;;;13.50;1.00;;;;;;5081445;28;21016;-74
2022/10/08 08:39:08;;;;;;;0.60;0.10;;;13.70;1.00;;;;;;5080828;28;20484;-74
2022/10/08 08:41:51;;;;;;;0.60;0.10;;;13.80;1.00;;;;;;5069234;28;20468;-75
2022/10/08 08:44:22;;;;;;;0.60;0.10;;;14.00;1.00;;;;;;5054973;28;20433;-73
2022/10/08 08:46:54;;;;;;;0.60;0.40;;;14.10;1.00;;;;;;5067053;28;20541;-75
2022/10/08 08:49:28;;;;;;;0.60;0.20;;;14.30;1.00;;;;;;5073207;28;20453;-75
2022/10/08 08:52:00;;;;;;;0.60;0.10;;;14.40;1.00;;;;;;5074042;28;20819;-75
2022/10/08 08:54:28;;;;;;;0.80;0.20;;;14.60;1.00;;;;;;5075094;28;20630;-73
2022/10/08 08:56:59;;;;;;;22.87;1.53;;;14.90;1.00;;;;;;5075131;28;20925;-74
2022/10/08 08:59:31;;;;;;;0.60;0.10;;;14.90;1.00;;;;;;5073491;28;20461;-73
2022/10/08 09:02:03;;;;;;;0.60;0.10;;;15.00;1.00;;;;;;5072817;28;20868;-75
2022/10/08 09:04:39;;;;;;;0.70;0.33;;;15.00;1.00;;;;;;5072920;28;20442;-74
2022/10/08 09:07:16;;;;;;;0.60;0.10;;;15.10;1.00;;;;;;5072702;28;20442;-75
2022/10/08 09:09:47;;;;;;;0.90;0.67;;;15.10;1.00;;;;;;5072964;28;20448;-72
2022/10/08 09:12:19;;;;;;;0.60;0.10;;;14.90;1.00;;;;;;5072138;28;20519;-75
2022/10/08 09:14:53;;;;;;;2.60;0.53;;;14.90;1.00;;;;;;5072066;28;20513;-75
2022/10/08 09:17:28;;;;;;;0.60;0.10;;;14.80;1.00;;;;;;5072767;28;20453;-74
2022/10/08 09:19:56;;;;;;;0.60;0.20;;;14.80;1.00;;;;;;5072961;28;20447;-74
2022/10/08 09:22:28;;;;;;;13.33;3.77;;;14.80;1.00;;;;;;5072009;28;20442;-74
2022/10/08 09:24:59;;;;;;;2.60;1.23;;;14.80;1.00;;;;;;5072604;28;20476;-74
2022/10/08 09:27:44;;;;;;;0.70;0.43;;;14.70;1.00;;;;;;5071780;28;20503;-76
2022/10/08 09:30:31;;;;;;;1.33;0.93;;;14.60;1.00;;;;;;5073269;28;20492;-75
2022/10/08 09:33:01;;;;;;;0.60;0.30;;;14.70;1.00;;;;;;5071721;28;20956;-73
2022/10/08 09:35:33;;;;;;;0.80;0.30;;;14.70;1.00;;;;;;5073099;28;20507;-75
2022/10/08 09:38:03;;;;;;;0.80;0.73;;;14.80;1.00;;;;;;5080761;28;20441;-74
2022/10/08 09:40:33;;;;;;;3.27;0.80;;;14.70;1.00;;;;;;5071229;28;20669;-76
2022/10/08 09:43:12;;;;;;;0.60;0.10;;;14.70;1.00;;;;;;5078269;28;20813;-75
2022/10/08 09:45:43;;;;;;;0.60;0.10;;;14.80;1.00;;;;;;5070665;28;20448;-75
2022/10/08 09:48:23;;;;;;;0.60;0.30;;;15.00;1.00;;;;;;5071102;28;20512;-76
2022/10/08 09:50:55;;;;;;;0.63;0.27;;;15.20;1.00;;;;;;5060812;28;20485;-75
2022/10/08 09:53:27;;;;;;;0.60;0.20;;;15.20;1.00;;;;;;5083441;28;20440;-76
2022/10/08 09:55:59;;;;;;;0.60;0.20;;;15.20;1.00;;;;;;5083642;28;20472;-75
2022/10/08 09:58:30;;;;;;;0.60;0.10;;;15.20;1.00;;;;;;5075674;28;20666;-76
2022/10/08 10:01:03;;;;;;;0.70;0.30;;;15.10;1.00;;;;;;5080857;28;20465;-77
2022/10/08 10:03:31;;;;;;;0.60;0.10;;;15.20;1.00;;;;;;5088071;28;20448;-75
2022/10/08 10:06:00;;;;;;;0.60;0.10;;;15.30;1.00;;;;;;5089622;28;20463;-73
2022/10/08 10:09:23;;;;;;;0.60;0.10;;;15.40;1.00;;;;;;5100994;28;20470;-74
2022/10/08 10:11:54;;;;;;;0.80;0.63;;;15.70;1.00;;;;;;5041865;28;20458;-76
2022/10/08 10:14:27;;;;;;;0.60;0.10;;;15.80;1.00;;;;;;5068864;28;20473;-75
2022/10/08 10:16:59;;;;;;;0.60;0.10;;;16.00;1.00;;;;;;5088602;28;20507;-74
2022/10/08 10:19:32;;;;;;;0.60;0.10;;;16.10;1.00;;;;;;5084430;28;20493;-75
2022/10/08 10:22:04;;;;;;;1.17;1.03;;;16.10;1.00;;;;;;5079129;28;20484;-74
2022/10/08 10:24:44;;;;;;;0.70;0.27;;;16.20;1.00;;;;;;5082963;28;20453;-76
2022/10/08 10:27:16;;;;;;;0.60;0.10;;;16.20;1.00;;;;;;5078407;28;20518;-75
2022/10/08 10:30:00;;;;;;;0.90;0.20;;;16.20;1.00;;;;;;5074701;28;20571;-75
2022/10/08 10:32:32;;;;;;;0.60;0.10;;;16.30;1.00;;;;;;5073903;28;20506;-72
2022/10/08 10:35:07;;;;;;;0.60;0.20;;;16.40;1.00;;;;;;5073229;28;20953;-74
2022/10/08 10:37:43;;;;;;;0.60;0.10;;;16.70;1.00;;;;;;5105593;22;21092;-74
2022/10/08 10:40:30;;;;;;;0.70;0.37;;;16.80;1.00;;;;;;5079670;28;20943;-75
2022/10/08 10:43:10;;;;;;;0.60;0.10;;;16.80;1.00;;;;;;5074120;28;20504;-74
2022/10/08 10:45:39;;;;;;;0.60;0.10;;;16.70;1.00;;;;;;5067033;28;20453;-73
2022/10/08 10:48:08;;;;;;;0.60;0.10;;;16.70;1.00;;;;;;5064209;28;20619;-73
2022/10/08 10:50:43;;;;;;;0.60;0.10;;;16.70;1.00;;;;;;5065058;28;20936;-74
2022/10/08 10:53:19;;;;;;;0.60;0.10;;;17.20;1.00;;;;;;5071848;28;21017;-72
2022/10/08 10:55:59;;;;;;;0.80;0.53;;;16.70;1.00;;;;;;5057973;28;20869;-74
2022/10/08 10:58:46;;;;;;;0.60;0.10;;;16.70;1.00;;;;;;5054063;28;20928;-73
2022/10/08 11:01:24;;;;;;;0.60;0.10;;;16.70;1.00;;;;;;5051672;28;20865;-73
2022/10/08 11:04:02;;;;;;;0.60;0.10;;;16.80;1.00;;;;;;5050509;28;20928;-75
2022/10/08 11:06:48;;;;;;;0.60;0.10;;;16.80;1.00;;;;;;5055999;28;20445;-75
2022/10/08 11:09:24;;;;;;;0.60;0.10;;;16.80;1.00;;;;;;5063194;28;20501;-74
2022/10/08 11:11:57;;;;;;;0.60;0.30;;;16.80;1.00;;;;;;5062870;28;20465;-74
2022/10/08 11:14:43;;;;;;;0.60;0.10;;;16.70;1.00;;;;;;5061483;28;20439;-75
2022/10/08 11:17:26;;;;;;;0.60;0.10;;;16.60;1.00;;;;;;5054457;28;20913;-76
2022/10/08 11:20:03;;;;;;;0.60;0.10;;;16.60;1.00;;;;;;5054373;28;20944;-74
2022/10/08 11:22:38;;;;;;;0.60;0.10;;;16.60;1.00;;;;;;5054030;28;20477;-75
2022/10/08 11:25:28;;;;;;;0.60;0.10;;;16.70;1.00;;;;;;5054988;28;20450;-73
2022/10/08 11:28:13;;;;;;;0.60;0.10;;;16.80;1.00;;;;;;5053919;28;20462;-74
2022/10/08 11:30:50;;;;;;;0.60;0.10;;;16.90;1.00;;;;;;5050698;28;20454;-74
2022/10/08 11:33:19;;;;;;;0.60;0.10;;;16.90;1.00;;;;;;5058832;28;20552;-72
2022/10/08 11:35:56;;;;;;;0.60;0.10;;;17.00;1.00;;;;;;5058414;28;20482;-74
2022/10/08 11:38:30;;;;;;;0.60;0.10;;;17.20;1.00;;;;;;5058022;28;20469;-74
2022/10/08 11:41:10;;;;;;;0.60;0.10;;;17.40;1.00;;;;;;5062598;28;20453;-74
2022/10/08 11:43:43;;;;;;;0.60;0.10;;;17.50;1.00;;;;;;5068128;28;20505;-74
2022/10/08 11:46:27;;;;;;;0.60;0.10;;;17.50;1.00;;;;;;5060091;28;20529;-72
2022/10/08 11:48:56;;;;;;;0.60;0.20;;;17.50;1.00;;;;;;5073173;28;20537;-74
2022/10/08 11:51:37;;;;;;;0.60;0.10;;;17.50;1.00;;;;;;5061873;28;20851;-75
2022/10/08 11:54:15;;;;;;;0.60;0.10;;;17.50;1.00;;;;;;5074000;28;20453;-74
2022/10/08 11:56:46;;;;;;;0.60;0.10;;;17.60;1.00;;;;;;5063051;28;21025;-73
2022/10/08 11:59:32;;;;;;;0.60;0.10;;;17.70;1.00;;;;;;5059790;28;20880;-73
2022/10/08 12:02:02;;;;;;;0.60;0.10;;;17.70;1.00;;;;;;5052971;28;20449;-72
2022/10/08 12:04:33;;;;;;;0.70;0.60;;;17.70;1.00;;;;;;5054315;28;20511;-75
2022/10/08 12:07:17;;;;;;;0.70;0.40;;;17.70;1.00;;;;;;5063353;28;20997;-73
2022/10/08 12:10:24;;;;;;;0.60;0.40;;;17.80;1.00;;;;;;5072858;28;20853;-75
2022/10/08 12:13:14;;;;;;;0.60;0.10;;;18.00;1.00;;;;;;5072554;28;20869;-73
2022/10/08 12:16:03;;;;;;;0.60;0.20;;;18.20;1.00;;;;;;5058829;28;21067;-76
2022/10/08 12:18:44;;;;;;;0.70;0.40;;;18.20;1.00;;;;;;5070684;28;20927;-76
2022/10/08 12:21:54;;;;;;;0.60;0.10;;;18.20;1.00;;;;;;5072418;28;20939;-77
2022/10/08 12:24:51;;;;;;;0.60;0.20;;;18.10;1.00;;;;;;5073491;28;20920;-75
2022/10/08 12:27:34;;;;;;;0.60;0.10;;;18.00;1.00;;;;;;5053196;28;20561;-75
2022/10/08 12:30:05;;;;;;;0.60;0.10;;;17.90;1.00;;;;;;5058953;28;20473;-73
2022/10/08 12:32:53;;;;;;;0.60;0.30;;;17.80;1.00;;;;;;5062518;28;20439;-73
2022/10/08 12:35:24;;;;;;;0.60;0.10;;;17.70;1.00;;;;;;5062121;28;20434;-74
2022/10/08 12:38:19;;;;;;;0.60;0.10;;;17.60;1.00;;;;;;5063421;28;20473;-74
2022/10/08 12:40:55;;;;;;;2.43;0.40;;;17.50;1.00;;;;;;5055647;28;20447;-74
2022/10/08 12:43:30;;;;;;;0.60;0.10;;;17.30;1.00;;;;;;5060670;28;20537;-75
2022/10/08 12:46:06;;;;;;;0.60;0.20;;;17.30;1.00;;;;;;5065866;28;20451;-75
2022/10/08 12:48:44;;;;;;;0.60;0.10;;;17.30;1.00;;;;;;5051973;28;20452;-75
2022/10/08 12:51:24;;;;;;;0.60;0.10;;;17.20;1.00;;;;;;5053603;28;20520;-75
2022/10/08 12:53:52;;;;;;;0.60;0.10;;;17.20;1.00;;;;;;5052203;28;20442;-73
2022/10/08 12:56:25;;;;;;;0.60;0.20;;;17.10;1.00;;;;;;5051370;28;20450;-74
2022/10/08 12:58:55;;;;;;;1.00;0.63;;;17.10;1.00;;;;;;5065226;28;20771;-75
2022/10/08 13:01:24;;;;;;;0.60;0.20;;;17.10;1.00;;;;;;5069164;28;20506;-74
2022/10/08 13:04:18;;;;;;;0.73;0.40;;;17.00;1.00;;;;;;5054045;28;20501;-70
2022/10/08 13:06:46;;;;;;;0.60;0.10;;;16.70;1.00;;;;;;5050976;28;20459;-68
2022/10/08 13:09:26;;;;;;;0.60;0.10;;;16.70;1.00;;;;;;5051127;28;20450;-70
2022/10/08 13:11:55;;;;;;;0.60;0.10;;;17.00;1.00;;;;;;5060170;28;20917;-67
2022/10/08 13:14:31;;;;;;;0.80;0.53;;;17.20;1.00;;;;;;5051367;28;20488;-70
2022/10/08 13:17:00;;;;;;;5.43;0.50;;;17.40;1.00;;;;;;5050953;28;20721;-72
2022/10/08 13:19:31;;;;;;;0.60;0.20;;;17.40;1.00;;;;;;5051369;28;20552;-77
2022/10/08 13:22:00;;;;;;;0.70;0.60;;;17.30;1.00;;;;;;5052847;28;20451;-77
2022/10/08 13:24:38;;;;;;;0.60;0.17;;;17.20;1.00;;;;;;5052218;28;20470;-74
2022/10/08 13:27:06;;;;;;;0.60;0.20;;;17.30;1.00;;;;;;5048018;28;20484;-75